Time;durP1;ratioP1;P1;durP2;ratioP2;P2;SDS_P1;SDS_P2;PMS_P1;PMS_P2;Temp;Humidity;BMP_temperature;BMP_pressure;BME280_temperature;BME280_humidity;BME280_pressure;Samples;Min_cycle;Max_cycle;Signal;HPM_P1;HPM_P2
2021/03/18 00:01:38;;;;;;;99.53;24.23;;;7.80;60.60;;;;;;4940445;28;20035;-65
2021/03/18 00:04:06;;;;;;;103.18;23.55;;;7.80;60.80;;;;;;4943320;28;20031;-65
2021/03/18 00:06:32;;;;;;;90.70;24.08;;;7.80;60.80;;;;;;4937426;28;20689;-66
2021/03/18 00:08:58;;;;;;;103.40;24.50;;;7.80;60.80;;;;;;4958398;28;20039;-66
2021/03/18 00:11:25;;;;;;;103.57;24.80;;;7.80;60.80;;;;;;4946498;28;20057;-65
2021/03/18 00:13:50;;;;;;;100.30;23.75;;;7.80;60.80;;;;;;4933538;28;20069;-65
2021/03/18 00:16:16;;;;;;;99.25;24.13;;;7.80;60.80;;;;;;4934753;28;20509;-65
2021/03/18 00:18:45;;;;;;;113.80;23.00;;;7.80;60.70;;;;;;4944432;28;20045;-65
2021/03/18 00:21:12;;;;;;;110.35;22.77;;;7.80;60.70;;;;;;4942576;28;20443;-65
2021/03/18 00:23:38;;;;;;;66.25;21.45;;;7.80;60.60;;;;;;4937340;28;20036;-66
2021/03/18 00:26:04;;;;;;;85.82;22.33;;;7.80;60.60;;;;;;4940263;28;20037;-65
2021/03/18 00:28:31;;;;;;;99.30;23.58;;;7.70;60.60;;;;;;4939237;28;20035;-65
2021/03/18 00:30:57;;;;;;;104.88;24.45;;;7.70;60.70;;;;;;4937923;28;20141;-65
2021/03/18 00:33:22;;;;;;;87.38;23.23;;;7.60;60.70;;;;;;4940069;28;20042;-65
2021/03/18 00:35:48;;;;;;;93.47;24.75;;;7.60;60.90;;;;;;4935881;28;20051;-65
2021/03/18 00:38:14;;;;;;;89.90;22.27;;;7.60;60.90;;;;;;4946285;28;20038;-65
2021/03/18 00:40:45;;;;;;;86.40;22.63;;;7.60;60.90;;;;;;4940793;28;20066;-65
2021/03/18 00:43:14;;;;;;;118.55;23.58;;;7.60;60.80;;;;;;4939150;28;20074;-65
2021/03/18 00:45:42;;;;;;;109.57;24.30;;;7.60;60.90;;;;;;4937586;28;20109;-65
2021/03/18 00:48:11;;;;;;;108.30;25.02;;;7.60;61.00;;;;;;4937004;28;20458;-65
2021/03/18 00:50:45;;;;;;;114.47;23.58;;;7.60;61.00;;;;;;4954847;28;20038;-65
2021/03/18 00:53:13;;;;;;;81.13;23.15;;;7.60;61.00;;;;;;4944500;28;20053;-65
2021/03/18 00:55:41;;;;;;;94.20;23.83;;;7.60;61.80;;;;;;4937008;28;20034;-65
2021/03/18 00:58:07;;;;;;;91.35;25.08;;;7.60;61.10;;;;;;4947530;28;20060;-65
2021/03/18 01:00:36;;;;;;;106.50;25.20;;;7.60;61.50;;;;;;4951325;28;20510;-65
2021/03/18 01:03:04;;;;;;;85.90;23.83;;;7.60;61.30;;;;;;4939353;28;20587;-65
2021/03/18 01:05:44;;;;;;;60.05;20.80;;;7.60;61.20;;;;;;4944540;28;20034;-65
2021/03/18 01:08:12;;;;;;;62.88;20.73;;;7.60;61.20;;;;;;4954599;28;20191;-65
2021/03/18 01:10:46;;;;;;;69.63;22.10;;;7.60;61.10;;;;;;4950607;28;20533;-65
2021/03/18 01:13:18;;;;;;;80.75;22.75;;;7.50;61.00;;;;;;4942412;28;20495;-65
2021/03/18 01:15:55;;;;;;;91.63;25.55;;;7.50;61.10;;;;;;4941946;28;20035;-65
2021/03/18 01:18:23;;;;;;;92.63;24.40;;;7.50;61.20;;;;;;4962361;28;20043;-65
2021/03/18 01:20:49;;;;;;;82.25;23.90;;;7.50;61.20;;;;;;4946150;28;20489;-64
2021/03/18 01:23:15;;;;;;;75.38;23.83;;;7.50;61.10;;;;;;4943414;28;20038;-65
2021/03/18 01:25:41;;;;;;;76.57;23.45;;;7.50;61.10;;;;;;4944198;28;20263;-65
2021/03/18 01:28:12;;;;;;;72.13;24.50;;;7.40;61.10;;;;;;4944939;28;20039;-65
2021/03/18 01:30:42;;;;;;;69.55;22.48;;;7.40;61.40;;;;;;4942339;28;20228;-65
2021/03/18 01:33:08;;;;;;;74.38;22.63;;;7.40;61.40;;;;;;4950013;28;20446;-65
2021/03/18 01:35:36;;;;;;;58.38;21.40;;;7.50;61.40;;;;;;4948696;28;20042;-66
2021/03/18 01:38:06;;;;;;;65.35;21.25;;;7.50;61.40;;;;;;4945535;28;20027;-65
2021/03/18 01:40:33;;;;;;;60.10;20.45;;;7.50;61.40;;;;;;4949410;28;20050;-66
2021/03/18 01:42:59;;;;;;;55.08;21.60;;;7.40;61.30;;;;;;4947755;28;20042;-65
2021/03/18 01:45:25;;;;;;;69.75;20.77;;;7.40;61.40;;;;;;4948691;28;20043;-65
2021/03/18 01:47:53;;;;;;;74.85;20.90;;;7.40;61.40;;;;;;4939947;28;20635;-65
2021/03/18 01:50:22;;;;;;;71.13;21.75;;;7.40;61.40;;;;;;4939105;28;20758;-65
2021/03/18 01:52:51;;;;;;;90.65;20.50;;;7.40;61.50;;;;;;4938646;28;20569;-65
2021/03/18 01:55:42;;;;;;;79.68;22.92;;;7.40;61.40;;;;;;4935274;28;20042;-65
2021/03/18 01:58:10;;;;;;;79.03;22.73;;;7.40;61.50;;;;;;4936019;28;20105;-65
2021/03/18 02:00:37;;;;;;;79.18;21.88;;;7.30;62.10;;;;;;4935974;28;20094;-65
2021/03/18 02:03:03;;;;;;;98.18;22.20;;;7.30;61.40;;;;;;4938933;28;20611;-65
2021/03/18 02:05:30;;;;;;;78.55;22.48;;;7.30;61.40;;;;;;4932222;28;20053;-65
2021/03/18 02:07:56;;;;;;;79.32;22.63;;;7.30;61.50;;;;;;4943712;28;20046;-65
2021/03/18 02:10:30;;;;;;;82.22;21.92;;;7.30;61.60;;;;;;4941665;28;20043;-65
2021/03/18 02:12:56;;;;;;;75.53;21.13;;;7.30;61.60;;;;;;4933851;28;20712;-65
2021/03/18 02:15:28;;;;;;;72.90;22.10;;;7.30;61.60;;;;;;4942126;28;20395;-65
2021/03/18 02:18:07;;;;;;;74.93;23.13;;;7.30;61.80;;;;;;4936364;28;20046;-65
2021/03/18 02:21:03;;;;;;;76.43;23.92;;;7.40;61.90;;;;;;4935118;28;20039;-66
2021/03/18 02:23:53;;;;;;;87.57;23.48;;;7.40;61.70;;;;;;4942553;28;20039;-65
2021/03/18 02:26:40;;;;;;;76.18;24.38;;;7.50;61.80;;;;;;4940776;28;20069;-65
2021/03/18 02:29:38;;;;;;;83.57;24.10;;;7.50;61.80;;;;;;4940870;28;20039;-65
2021/03/18 02:32:29;;;;;;;85.63;24.92;;;7.50;61.80;;;;;;4937089;28;20173;-65
2021/03/18 02:35:29;;;;;;;94.60;24.15;;;7.50;61.80;;;;;;4941411;28;20039;-65
2021/03/18 02:38:14;;;;;;;87.25;23.90;;;7.50;62.10;;;;;;4948213;28;20330;-65
2021/03/18 02:40:47;;;;;;;80.93;23.83;;;7.60;62.00;;;;;;4940547;28;20608;-65
2021/03/18 02:43:16;;;;;;;75.70;22.63;;;7.60;62.00;;;;;;4945763;28;20129;-65
2021/03/18 02:45:47;;;;;;;84.35;25.05;;;7.60;61.90;;;;;;4941761;28;20043;-65
2021/03/18 02:48:24;;;;;;;88.55;24.38;;;7.60;62.00;;;;;;4941786;28;20515;-65
2021/03/18 02:50:52;;;;;;;86.72;25.70;;;7.70;62.00;;;;;;4939114;28;20446;-65
2021/03/18 02:53:19;;;;;;;86.10;25.40;;;7.70;62.70;;;;;;4935739;28;20168;-65
2021/03/18 02:55:48;;;;;;;75.53;22.65;;;7.70;62.00;;;;;;4943449;28;20066;-65
2021/03/18 02:58:19;;;;;;;78.43;22.48;;;7.80;62.00;;;;;;4945733;28;20253;-65
2021/03/18 03:00:46;;;;;;;71.75;21.88;;;7.80;61.90;;;;;;4937455;28;20035;-65
2021/03/18 03:03:18;;;;;;;76.05;21.42;;;7.80;61.90;;;;;;4946334;28;20046;-65
2021/03/18 03:05:50;;;;;;;74.32;19.77;;;7.80;61.90;;;;;;4941175;28;20175;-65
2021/03/18 03:08:17;;;;;;;71.32;19.75;;;7.80;61.90;;;;;;4943921;28;20053;-65
2021/03/18 03:10:47;;;;;;;75.78;20.27;;;7.80;61.90;;;;;;4948636;28;20062;-65
2021/03/18 03:13:15;;;;;;;71.00;18.13;;;7.90;62.00;;;;;;4937303;28;20513;-65
2021/03/18 03:15:40;;;;;;;61.40;15.95;;;7.90;61.90;;;;;;4933308;28;20043;-65
2021/03/18 03:18:08;;;;;;;77.65;18.15;;;7.90;61.90;;;;;;4930188;28;20125;-65
2021/03/18 03:20:37;;;;;;;80.03;18.30;;;7.90;62.00;;;;;;4931714;28;20046;-65
2021/03/18 03:23:05;;;;;;;92.82;20.00;;;8.00;62.10;;;;;;4933453;28;20043;-65
2021/03/18 03:25:32;;;;;;;103.93;19.88;;;8.00;62.00;;;;;;4936983;28;20603;-65
2021/03/18 03:27:58;;;;;;;81.65;20.30;;;8.00;62.00;;;;;;4936629;28;20126;-65
2021/03/18 03:30:24;;;;;;;70.82;18.30;;;8.00;62.00;;;;;;4925800;28;20728;-64
2021/03/18 03:32:51;;;;;;;90.10;18.40;;;8.00;62.00;;;;;;4925884;28;20035;-65
2021/03/18 03:35:17;;;;;;;66.63;17.90;;;8.10;62.00;;;;;;4930213;28;20042;-65
2021/03/18 03:37:46;;;;;;;89.22;20.10;;;8.10;62.00;;;;;;4931522;28;20038;-65
2021/03/18 03:40:14;;;;;;;104.45;20.15;;;8.10;62.00;;;;;;4935537;28;20053;-65
2021/03/18 03:42:40;;;;;;;80.97;19.50;;;8.10;62.00;;;;;;4935505;28;20040;-65
2021/03/18 03:45:11;;;;;;;88.38;20.67;;;8.10;62.00;;;;;;4935354;28;20513;-65
2021/03/18 03:47:38;;;;;;;97.13;20.52;;;8.10;62.00;;;;;;4924734;28;20045;-65
2021/03/18 03:50:10;;;;;;;104.97;20.85;;;8.10;62.00;;;;;;4930388;28;20482;-65
2021/03/18 03:52:47;;;;;;;111.30;21.92;;;8.10;62.00;;;;;;4937112;28;20074;-65
2021/03/18 03:55:18;;;;;;;87.80;19.75;;;8.20;62.10;;;;;;4931174;28;20090;-65
2021/03/18 03:57:53;;;;;;;97.00;20.02;;;8.20;61.80;;;;;;4932646;28;20043;-65
2021/03/18 04:00:19;;;;;;;90.75;21.40;;;8.20;62.10;;;;;;4932137;28;20035;-65
2021/03/18 04:02:46;;;;;;;93.07;20.88;;;8.20;62.10;;;;;;4932234;28;20097;-65
2021/03/18 04:05:15;;;;;;;96.60;21.75;;;8.20;62.10;;;;;;4937731;28;20042;-65
2021/03/18 04:07:43;;;;;;;88.72;21.20;;;8.20;62.10;;;;;;4939131;28;20038;-64
2021/03/18 04:10:12;;;;;;;93.15;21.15;;;8.20;62.10;;;;;;4937075;28;20070;-65
2021/03/18 04:12:40;;;;;;;98.97;21.35;;;8.30;62.20;;;;;;4940476;28;20046;-66
2021/03/18 04:15:15;;;;;;;103.45;21.83;;;8.20;62.10;;;;;;4930333;28;20139;-65
2021/03/18 04:17:44;;;;;;;84.68;21.95;;;8.30;62.10;;;;;;4936471;28;20035;-65
2021/03/18 04:20:13;;;;;;;88.03;21.73;;;8.30;62.10;;;;;;4932722;28;20043;-65
2021/03/18 04:22:42;;;;;;;100.00;22.60;;;8.20;62.10;;;;;;4932892;28;20690;-65
2021/03/18 04:25:08;;;;;;;97.93;22.23;;;8.30;62.20;;;;;;4934937;28;20403;-65
2021/03/18 04:27:35;;;;;;;102.78;23.05;;;8.30;62.10;;;;;;4930120;28;20497;-64
2021/03/18 04:30:08;;;;;;;102.10;21.30;;;8.30;62.20;;;;;;4935561;28;20411;-66
2021/03/18 04:32:35;;;;;;;96.78;21.77;;;8.30;62.10;;;;;;4929921;28;20231;-66
2021/03/18 04:35:01;;;;;;;99.38;21.95;;;8.30;62.10;;;;;;4925713;28;20050;-66
2021/03/18 04:37:32;;;;;;;104.35;22.50;;;8.30;62.20;;;;;;4932380;28;20352;-66
2021/03/18 04:39:58;;;;;;;105.80;22.35;;;8.30;62.20;;;;;;4926874;28;20097;-65
2021/03/18 04:42:24;;;;;;;100.55;21.95;;;8.30;62.20;;;;;;4930596;28;20043;-63
2021/03/18 04:44:50;;;;;;;102.78;23.30;;;8.30;62.20;;;;;;4929100;28;20078;-65
2021/03/18 04:47:17;;;;;;;106.80;21.17;;;8.30;62.20;;;;;;4933805;28;20036;-65
2021/03/18 04:49:45;;;;;;;103.22;22.58;;;8.30;62.20;;;;;;4932195;28;20037;-66
2021/03/18 04:52:18;;;;;;;108.30;22.92;;;8.30;62.10;;;;;;4933517;28;20038;-65
2021/03/18 04:54:47;;;;;;;100.00;21.88;;;8.30;62.10;;;;;;4934702;28;20043;-65
2021/03/18 04:57:16;;;;;;;112.43;24.20;;;8.30;62.20;;;;;;4937045;28;20117;-65
2021/03/18 04:59:43;;;;;;;95.13;21.33;;;8.30;62.30;;;;;;4934834;28;20275;-65
2021/03/18 05:02:12;;;;;;;111.85;23.05;;;8.30;62.30;;;;;;4924388;28;20134;-65
2021/03/18 05:04:40;;;;;;;104.80;21.70;;;8.30;62.40;;;;;;4932561;28;20101;-65
2021/03/18 05:07:06;;;;;;;94.90;22.48;;;8.30;62.40;;;;;;4936865;28;20043;-64
2021/03/18 05:09:38;;;;;;;113.25;23.33;;;8.40;62.40;;;;;;4936764;28;20046;-65
2021/03/18 05:12:04;;;;;;;115.03;22.88;;;8.40;62.40;;;;;;4928185;28;20054;-65
2021/03/18 05:14:30;;;;;;;102.80;23.23;;;8.40;62.40;;;;;;4938126;28;20050;-65
2021/03/18 05:16:59;;;;;;;110.97;23.65;;;8.40;62.40;;;;;;4930043;28;20047;-64
2021/03/18 05:19:25;;;;;;;116.38;23.58;;;8.40;62.50;;;;;;4931894;28;20399;-65
2021/03/18 05:21:53;;;;;;;113.53;25.70;;;8.30;62.50;;;;;;4935992;28;20473;-64
2021/03/18 05:24:21;;;;;;;108.63;24.42;;;8.40;62.50;;;;;;4928775;28;20045;-66
2021/03/18 05:26:49;;;;;;;109.57;23.67;;;8.40;62.60;;;;;;4929140;28;20496;-66
2021/03/18 05:29:16;;;;;;;125.43;25.20;;;8.40;62.50;;;;;;4936067;28;20104;-65
2021/03/18 05:31:43;;;;;;;112.97;23.88;;;8.40;62.50;;;;;;4935486;28;20145;-65
2021/03/18 05:34:11;;;;;;;120.65;23.85;;;8.40;62.50;;;;;;4934816;28;20106;-66
2021/03/18 05:36:40;;;;;;;115.85;24.70;;;8.40;62.60;;;;;;4934983;28;20594;-66
2021/03/18 05:39:08;;;;;;;109.85;24.38;;;8.40;62.60;;;;;;4934869;28;20039;-66
2021/03/18 05:41:34;;;;;;;123.30;25.08;;;8.40;62.50;;;;;;4936850;28;20190;-70
2021/03/18 05:44:01;;;;;;;119.65;24.40;;;8.40;62.60;;;;;;4937196;28;20149;-66
2021/03/18 05:46:26;;;;;;;113.28;24.25;;;8.50;62.70;;;;;;4941038;28;20039;-65
2021/03/18 05:48:56;;;;;;;105.57;24.25;;;8.50;62.80;;;;;;4932623;28;20039;-65
2021/03/18 05:51:22;;;;;;;116.60;24.77;;;8.50;62.70;;;;;;4938449;28;20059;-66
2021/03/18 05:53:49;;;;;;;113.65;25.17;;;8.50;62.60;;;;;;4939488;28;20047;-66
2021/03/18 05:56:20;;;;;;;108.07;24.55;;;8.60;62.80;;;;;;4940398;28;20042;-66
2021/03/18 05:58:47;;;;;;;108.47;24.85;;;8.60;62.80;;;;;;4938175;28;20403;-66
2021/03/18 06:01:14;;;;;;;108.90;25.65;;;8.70;62.80;;;;;;4936732;28;20562;-66
2021/03/18 06:03:40;;;;;;;95.25;23.48;;;8.70;62.80;;;;;;4937068;28;20365;-66
2021/03/18 06:06:07;;;;;;;108.47;24.80;;;8.80;62.90;;;;;;4938137;28;20047;-66
2021/03/18 06:08:35;;;;;;;105.95;23.60;;;8.80;62.90;;;;;;4932097;28;20046;-66
2021/03/18 06:11:02;;;;;;;85.45;24.50;;;8.90;62.90;;;;;;4941127;28;20129;-66
2021/03/18 06:13:28;;;;;;;86.97;25.42;;;8.90;63.20;;;;;;4936758;28;20502;-66
2021/03/18 06:15:58;;;;;;;84.30;23.30;;;9.00;62.80;;;;;;4937903;28;20054;-66
2021/03/18 06:18:24;;;;;;;77.43;23.42;;;9.00;62.70;;;;;;4939187;28;20455;-66
2021/03/18 06:20:51;;;;;;;77.07;23.55;;;9.10;62.80;;;;;;4932228;28;20043;-66
2021/03/18 06:23:20;;;;;;;80.88;24.27;;;9.10;62.80;;;;;;4932138;28;20110;-66
2021/03/18 06:25:48;;;;;;;73.70;22.88;;;9.20;62.80;;;;;;4935523;28;20387;-63
2021/03/18 06:28:20;;;;;;;68.97;22.23;;;9.20;62.10;;;;;;4938349;28;20050;-65
2021/03/18 06:30:57;;;;;;;62.65;22.50;;;9.30;62.80;;;;;;4938489;28;20039;-66
2021/03/18 06:33:52;;;;;;;54.25;19.55;;;9.30;62.70;;;;;;4926230;28;20046;-66
2021/03/18 06:36:19;;;;;;;63.72;20.90;;;9.30;62.70;;;;;;4924402;28;20276;-67
2021/03/18 06:38:59;;;;;;;58.38;20.10;;;9.40;62.60;;;;;;4934054;28;20042;-66
2021/03/18 06:41:41;;;;;;;52.60;20.60;;;9.40;62.50;;;;;;4932333;28;20034;-65
2021/03/18 06:44:21;;;;;;;55.10;20.40;;;9.50;62.40;;;;;;4935364;28;20487;-65
2021/03/18 06:46:47;;;;;;;56.78;19.77;;;9.40;62.20;;;;;;4915567;28;20066;-65
2021/03/18 06:49:14;;;;;;;51.05;19.23;;;9.40;62.10;;;;;;4932011;28;20081;-66
2021/03/18 06:51:45;;;;;;;52.83;18.65;;;9.40;62.20;;;;;;4941719;28;20494;-66
2021/03/18 06:54:19;;;;;;;53.97;18.92;;;9.40;62.30;;;;;;4939120;28;20210;-65
2021/03/18 06:56:57;;;;;;;55.90;17.85;;;9.50;62.30;;;;;;4934912;28;20086;-66
2021/03/18 06:59:27;;;;;;;45.20;17.80;;;9.50;63.00;;;;;;4934615;28;20050;-65
2021/03/18 07:02:11;;;;;;;47.03;17.25;;;9.50;62.20;;;;;;4929263;28;20043;-65
2021/03/18 07:04:56;;;;;;;41.80;16.70;;;9.50;62.20;;;;;;4924932;28;20045;-65
2021/03/18 07:07:28;;;;;;;36.95;16.13;;;9.50;62.10;;;;;;4935220;28;20047;-66
2021/03/18 07:09:57;;;;;;;40.78;18.52;;;9.60;62.20;;;;;;4930485;28;20468;-65
2021/03/18 07:12:34;;;;;;;43.92;16.88;;;9.60;62.20;;;;;;4930609;28;20542;-65
2021/03/18 07:15:15;;;;;;;32.63;15.45;;;9.60;62.20;;;;;;4935352;28;20045;-65
2021/03/18 07:17:41;;;;;;;37.28;15.43;;;9.70;62.10;;;;;;4939220;28;20047;-65
2021/03/18 07:20:22;;;;;;;40.22;15.65;;;9.70;61.90;;;;;;4928597;28;20074;-65
2021/03/18 07:22:50;;;;;;;33.13;14.27;;;9.80;62.00;;;;;;4936781;28;20935;-66
2021/03/18 07:25:18;;;;;;;30.60;13.85;;;9.80;62.00;;;;;;4937244;28;20577;-65
2021/03/18 07:27:47;;;;;;;30.90;13.77;;;9.90;62.00;;;;;;4930687;28;20058;-66
2021/03/18 07:30:34;;;;;;;31.65;13.30;;;9.90;61.80;;;;;;4933659;28;20046;-66
2021/03/18 07:33:00;;;;;;;30.27;13.85;;;10.00;62.00;;;;;;4932084;28;20045;-65
2021/03/18 07:35:27;;;;;;;29.35;13.25;;;10.10;61.60;;;;;;4937499;28;20039;-66
2021/03/18 07:37:55;;;;;;;29.58;11.93;;;10.10;61.30;;;;;;4932831;28;20109;-66
2021/03/18 07:40:23;;;;;;;29.42;12.10;;;10.20;61.30;;;;;;4929968;28;20687;-66
2021/03/18 07:42:53;;;;;;;29.05;12.88;;;10.20;61.00;;;;;;4940020;28;20721;-66
2021/03/18 07:45:21;;;;;;;21.85;11.80;;;10.30;61.40;;;;;;4941003;28;20247;-66
2021/03/18 07:47:48;;;;;;;19.92;10.77;;;10.50;61.40;;;;;;4931871;28;20038;-66
2021/03/18 07:50:17;;;;;;;22.75;11.57;;;10.60;61.10;;;;;;4935351;28;20038;-66
2021/03/18 07:52:45;;;;;;;22.90;11.82;;;10.70;60.60;;;;;;4932266;28;20035;-66
2021/03/18 07:55:15;;;;;;;23.27;10.38;;;10.80;60.30;;;;;;4935239;28;20403;-65
2021/03/18 07:57:49;;;;;;;19.40;9.35;;;10.90;60.30;;;;;;4939099;28;20039;-66
2021/03/18 08:00:23;;;;;;;22.85;8.65;;;11.00;59.90;;;;;;4935407;28;20168;-66
2021/03/18 08:02:49;;;;;;;19.73;9.18;;;11.10;59.50;;;;;;4939548;28;20042;-66
2021/03/18 08:05:47;;;;;;;18.05;9.80;;;11.20;59.20;;;;;;4931961;28;20039;-66
2021/03/18 08:08:31;;;;;;;22.52;9.68;;;11.20;59.10;;;;;;4922246;28;20031;-64
2021/03/18 08:11:13;;;;;;;22.65;10.20;;;11.20;58.80;;;;;;4932226;28;20048;-63
2021/03/18 08:13:43;;;;;;;19.77;9.35;;;11.20;58.60;;;;;;4934270;28;20057;-66
2021/03/18 08:16:29;;;;;;;23.17;10.82;;;11.20;58.40;;;;;;4932177;28;20046;-68
2021/03/18 08:18:55;;;;;;;19.80;9.25;;;11.10;58.30;;;;;;4929256;28;20049;-65
2021/03/18 08:21:49;;;;;;;26.27;11.23;;;11.10;58.20;;;;;;4945678;28;20042;-65
2021/03/18 08:24:30;;;;;;;15.48;8.93;;;11.00;58.30;;;;;;4924489;28;24165;-65
2021/03/18 08:27:06;;;;;;;24.80;10.02;;;11.00;58.10;;;;;;4937481;28;21167;-65
2021/03/18 08:29:46;;;;;;;25.58;10.30;;;10.90;58.20;;;;;;4929056;28;20694;-65
2021/03/18 08:32:28;;;;;;;23.13;10.63;;;11.00;58.60;;;;;;4933144;28;20175;-65
2021/03/18 08:34:59;;;;;;;19.58;10.10;;;11.00;58.50;;;;;;4928619;28;20645;-66
2021/03/18 08:37:37;;;;;;;19.25;9.45;;;11.10;58.40;;;;;;4942637;28;20039;-66
2021/03/18 08:40:15;;;;;;;17.83;8.77;;;11.10;58.20;;;;;;4936535;28;20042;-66
2021/03/18 08:45:19;;;;;;;15.13;8.13;;;11.20;58.10;;;;;;4925061;23;20754;-66
2021/03/18 08:47:55;;;;;;;14.57;7.82;;;11.30;57.70;;;;;;4940557;28;20438;-65
2021/03/18 08:50:27;;;;;;;22.40;8.32;;;11.50;57.60;;;;;;4935117;28;20116;-66
2021/03/18 08:52:53;;;;;;;11.60;6.80;;;11.60;57.50;;;;;;4943625;28;20490;-65
2021/03/18 08:55:39;;;;;;;14.68;6.53;;;11.70;57.20;;;;;;4949721;28;20049;-64
2021/03/18 08:58:11;;;;;;;10.20;6.93;;;11.90;56.80;;;;;;4926995;28;20039;-64
2021/03/18 09:00:38;;;;;;;13.52;6.70;;;11.90;56.30;;;;;;4941970;28;20118;-64
2021/03/18 09:03:04;;;;;;;15.07;6.85;;;12.00;56.50;;;;;;4943080;28;20122;-64
2021/03/18 09:05:33;;;;;;;11.15;6.68;;;12.30;56.50;;;;;;4951087;28;20038;-64
2021/03/18 09:08:06;;;;;;;9.52;6.32;;;12.40;56.00;;;;;;4952418;28;20520;-64
2021/03/18 09:10:36;;;;;;;13.73;6.40;;;12.70;56.30;;;;;;4948004;28;20156;-63
2021/03/18 09:13:14;;;;;;;13.55;4.38;;;13.10;55.80;;;;;;4941574;28;20493;-64
2021/03/18 09:15:42;;;;;;;14.10;5.35;;;13.40;54.40;;;;;;4949145;28;20042;-64
2021/03/18 09:18:31;;;;;;;14.15;5.35;;;13.60;53.40;;;;;;4945967;28;20047;-65
2021/03/18 09:21:05;;;;;;;10.35;4.85;;;13.70;52.90;;;;;;4944592;28;20050;-64
2021/03/18 09:23:39;;;;;;;10.15;4.85;;;13.70;52.50;;;;;;4955587;28;21634;-65
2021/03/18 09:26:09;;;;;;;10.77;4.50;;;13.80;52.30;;;;;;4950703;28;20724;-64
2021/03/18 09:28:58;;;;;;;8.68;4.25;;;14.00;52.10;;;;;;4962394;28;20096;-64
2021/03/18 09:31:24;;;;;;;6.72;3.45;;;14.40;52.80;;;;;;4947628;28;20578;-64
2021/03/18 09:33:52;;;;;;;10.05;4.25;;;15.00;51.40;;;;;;4952389;28;20098;-64
2021/03/18 09:36:18;;;;;;;10.88;4.18;;;15.10;49.20;;;;;;4958983;28;20122;-64
2021/03/18 09:39:05;;;;;;;7.10;4.65;;;15.00;48.70;;;;;;4956548;28;20496;-64
2021/03/18 09:41:36;;;;;;;11.95;5.00;;;14.60;48.40;;;;;;4951377;28;20039;-64
2021/03/18 09:44:11;;;;;;;8.63;4.30;;;14.20;48.50;;;;;;4947007;28;20508;-63
2021/03/18 09:46:38;;;;;;;12.07;4.50;;;13.90;49.10;;;;;;4950618;28;20049;-64
2021/03/18 09:49:04;;;;;;;10.10;4.55;;;13.70;49.40;;;;;;4952645;28;20047;-64
2021/03/18 09:51:35;;;;;;;13.75;4.75;;;13.50;49.70;;;;;;4943831;28;20112;-64
2021/03/18 09:54:05;;;;;;;11.15;4.30;;;13.40;49.70;;;;;;4951670;28;20035;-64
2021/03/18 09:56:42;;;;;;;10.02;4.47;;;13.30;49.90;;;;;;4953580;28;20047;-64
2021/03/18 09:59:09;;;;;;;8.35;3.70;;;13.30;50.10;;;;;;4946354;28;20901;-64
2021/03/18 10:01:35;;;;;;;11.00;3.50;;;13.20;50.30;;;;;;4946442;28;20130;-64
2021/03/18 10:04:08;;;;;;;11.40;3.70;;;13.20;50.10;;;;;;4945298;28;20045;-64
2021/03/18 10:06:47;;;;;;;5.07;3.40;;;13.10;50.00;;;;;;4946300;28;20944;-64
2021/03/18 10:09:23;;;;;;;9.25;3.30;;;13.20;50.20;;;;;;4946836;28;20047;-64
2021/03/18 10:11:56;;;;;;;7.65;3.33;;;13.20;50.20;;;;;;4952128;28;21388;-64
2021/03/18 10:14:31;;;;;;;7.53;2.65;;;13.30;49.80;;;;;;4949949;28;20070;-64
2021/03/18 10:16:59;;;;;;;6.40;2.40;;;13.30;49.30;;;;;;4955511;28;20046;-64
2021/03/18 10:19:28;;;;;;;6.95;2.65;;;13.20;48.80;;;;;;4946773;28;20091;-64
2021/03/18 10:21:54;;;;;;;7.78;3.38;;;13.00;49.00;;;;;;4955097;28;20529;-64
2021/03/18 10:24:20;;;;;;;6.03;3.03;;;;;;;;;;4952248;28;23247;-64
2021/03/18 10:26:49;;;;;;;7.40;2.83;;;;;;;;;;4942906;28;20042;-64
2021/03/18 10:29:14;;;;;;;8.05;2.83;;;;;;;;;;4945906;28;20646;-64
2021/03/18 10:31:43;;;;;;;6.40;2.40;;;;;;;;;;4949093;28;20141;-64
2021/03/18 10:34:24;;;;;;;6.82;2.20;;;;;;;;;;4946433;28;20038;-64
2021/03/18 10:36:50;;;;;;;5.25;1.80;;;;;;;;;;4949199;28;20059;-64
2021/03/18 10:39:21;;;;;;;5.63;2.00;;;;;;;;;;4949749;28;20035;-64
2021/03/18 10:41:51;;;;;;;12.07;2.92;;;;;;;;;;4950215;28;20046;-64
2021/03/18 10:44:17;;;;;;;5.13;1.85;;;;;;;;;;4950749;28;20051;-64
2021/03/18 10:46:43;;;;;;;6.35;2.08;;;;;;;;;;4937745;28;20544;-64
2021/03/18 10:49:11;;;;;;;5.93;2.50;;;;;;;;;;4949937;28;20321;-65
2021/03/18 10:51:44;;;;;;;7.10;2.40;;;;;;;;;;4949750;28;20623;-64
2021/03/18 10:54:17;;;;;;;8.43;2.55;;;;;;;;;;4950785;28;20042;-64
2021/03/18 10:56:43;;;;;;;9.07;2.85;;;;;;;;;;4949647;28;20986;-64
2021/03/18 10:59:18;;;;;;;5.93;2.35;;;;;;;;;;4948819;28;20500;-65
2021/03/18 11:01:44;;;;;;;5.97;2.50;;;;;;;;;;4948157;28;20081;-64
2021/03/18 11:04:12;;;;;;;7.28;2.20;;;;;;;;;;4949113;28;20039;-64
2021/03/18 11:06:51;;;;;;;5.47;2.22;;;;;;;;;;4951529;28;20049;-63
2021/03/18 11:09:17;;;;;;;4.22;1.80;;;;;;;;;;4955683;28;20119;-64
2021/03/18 11:11:54;;;;;;;7.65;1.80;;;12.90;49.30;;;;;;4949361;28;20174;-64
2021/03/18 11:14:20;;;;;;;5.07;2.05;;;14.20;49.00;;;;;;4947033;28;20051;-64
2021/03/18 11:16:45;;;;;;;4.85;1.83;;;15.00;47.80;;;;;;4941438;28;20330;-64
2021/03/18 11:19:13;;;;;;;3.88;1.50;;;15.40;45.80;;;;;;4946218;28;20050;-65
2021/03/18 11:21:44;;;;;;;2.88;1.77;;;15.50;44.60;;;;;;4944111;28;20034;-64
2021/03/18 11:24:18;;;;;;;2.00;1.20;;;15.30;43.60;;;;;;4937265;28;20162;-64
2021/03/18 11:26:51;;;;;;;3.22;1.30;;;15.10;43.30;;;;;;4933431;28;24634;-64
2021/03/18 11:29:18;;;;;;;3.10;1.17;;;14.80;43.20;;;;;;4929533;28;20047;-63
2021/03/18 11:31:47;;;;;;;4.50;1.33;;;14.50;43.10;;;;;;4931605;28;20146;-64
2021/03/18 11:34:15;;;;;;;2.65;1.65;;;14.30;43.20;;;;;;4922022;28;20050;-64
2021/03/18 11:36:41;;;;;;;4.30;1.65;;;14.10;43.30;;;;;;4928093;28;20038;-65
2021/03/18 11:39:10;;;;;;;3.83;1.70;;;13.80;43.70;;;;;;4920175;28;20203;-64
2021/03/18 11:41:36;;;;;;;5.07;1.70;;;13.70;44.10;;;;;;4933855;28;20169;-65
2021/03/18 11:44:04;;;;;;;5.60;1.88;;;13.50;44.40;;;;;;4925272;28;22318;-64
2021/03/18 11:46:29;;;;;;;3.53;1.63;;;13.30;44.70;;;;;;4927157;28;20047;-64
2021/03/18 11:48:57;;;;;;;7.10;1.50;;;13.20;44.80;;;;;;4925999;28;20526;-64
2021/03/18 11:51:23;;;;;;;3.90;1.40;;;;;;;;;;4929793;28;20035;-64
2021/03/18 11:53:50;;;;;;;4.47;1.52;;;;;;;;;;4930728;28;20394;-64
2021/03/18 11:56:16;;;;;;;3.47;1.67;;;;;;;;;;4932971;28;20799;-64
2021/03/18 11:58:47;;;;;;;4.25;1.90;;;;;;;;;;4945622;28;20039;-64
2021/03/18 12:01:14;;;;;;;5.47;1.73;;;;;;;;;;4945841;28;20148;-64
2021/03/18 12:03:40;;;;;;;5.38;1.75;;;;;;;;;;4949425;28;20069;-64
2021/03/18 12:06:06;;;;;;;6.32;1.70;;;;;;;;;;4953652;28;20228;-64
2021/03/18 12:08:32;;;;;;;5.90;1.83;;;;;;;;;;4945160;28;20050;-64
2021/03/18 12:11:01;;;;;;;1.80;1.48;;;;;;;;;;4947750;28;20031;-64
2021/03/18 12:13:27;;;;;;;6.35;2.08;;;;;;;;;;4934224;28;20039;-64
2021/03/18 12:15:53;;;;;;;4.68;1.58;;;;;;;;;;4944765;28;20117;-64
2021/03/18 12:18:19;;;;;;;4.95;1.98;;;;;;;;;;4939721;28;20035;-64
2021/03/18 12:20:45;;;;;;;2.30;1.50;;;;;;;;;;4942586;28;20031;-63
2021/03/18 12:23:11;;;;;;;6.30;2.00;;;;;;;;;;4943679;28;20184;-64
2021/03/18 12:25:37;;;;;;;6.10;1.80;;;;;;;;;;4949602;28;20383;-64
2021/03/18 12:28:03;;;;;;;3.30;1.88;;;;;;;;;;4944499;28;20946;-64
2021/03/18 12:30:29;;;;;;;9.38;2.08;;;;;;;;;;4947355;28;20959;-64
2021/03/18 12:32:55;;;;;;;6.30;1.67;;;;;;;;;;4940949;28;20104;-64
2021/03/18 12:35:23;;;;;;;2.85;1.70;;;;;;;;;;4965244;28;20035;-64
2021/03/18 12:37:51;;;;;;;2.38;1.60;;;;;;;;;;4947653;28;20145;-64
2021/03/18 12:40:17;;;;;;;8.52;2.03;;;;;;;;;;4943853;28;20038;-64
2021/03/18 12:42:44;;;;;;;5.78;1.80;;;;;;;;;;4932547;28;20038;-64
2021/03/18 12:45:11;;;;;;;3.65;1.73;;;;;;;;;;4939408;28;20039;-64
2021/03/18 12:47:38;;;;;;;4.57;1.42;;;;;;;;;;4946023;28;20066;-64
2021/03/18 12:50:10;;;;;;;6.22;1.58;;;13.10;45.10;;;;;;4953053;28;20425;-64
2021/03/18 12:52:38;;;;;;;5.60;1.80;;;14.70;42.80;;;;;;4944460;28;20042;-64
2021/03/18 12:55:06;;;;;;;4.80;1.70;;;14.80;43.20;;;;;;4941961;28;20375;-65
2021/03/18 12:57:32;;;;;;;9.50;1.65;;;14.80;43.10;;;;;;4946925;28;20481;-64
2021/03/18 12:59:57;;;;;;;9.52;1.73;;;14.80;42.90;;;;;;4932623;28;20043;-64
2021/03/18 13:02:24;;;;;;;2.38;1.65;;;14.80;42.70;;;;;;4939062;28;20058;-64
2021/03/18 13:04:49;;;;;;;2.30;1.60;;;14.80;42.60;;;;;;4953227;28;20513;-64
2021/03/18 13:07:16;;;;;;;3.80;1.60;;;14.80;43.00;;;;;;4955337;28;20130;-64
2021/03/18 13:09:44;;;;;;;7.05;1.73;;;14.80;42.20;;;;;;4951168;28;20050;-64